Time;durP1;ratioP1;P1;durP2;ratioP2;P2;SDS_P1;SDS_P2;PMS_P1;PMS_P2;Temp;Humidity;BMP_temperature;BMP_pressure;BME280_temperature;BME280_humidity;BME280_pressure;Samples;Min_cycle;Max_cycle;Signal;HPM_P1;HPM_P2
2023/10/17 00:00:45;;;;;;;2.33;1.07;;;;;;;;;;5001256;28;20483;-72
2023/10/17 00:03:14;;;;;;;1.70;1.03;;;;;;;;;;5015443;28;20455;-71
2023/10/17 00:05:42;;;;;;;1.60;0.90;;;;;;;;;;4999583;28;20493;-70
2023/10/17 00:08:10;;;;;;;1.40;0.60;;;;;;;;;;5012754;28;20452;-71
2023/10/17 00:10:41;;;;;;;4.20;1.83;;;;;;;;;;5008985;28;20578;-70
2023/10/17 00:13:23;;;;;;;2.33;1.30;;;;;;;;;;5008302;28;20463;-72
2023/10/17 00:15:53;;;;;;;2.50;1.27;;;;;;;;;;5004560;28;20946;-73
2023/10/17 00:18:25;;;;;;;2.23;1.10;;;;;;;;;;5012664;28;20595;-71
2023/10/17 00:20:53;;;;;;;1.50;0.83;;;;;;;;;;5005397;28;21046;-71
2023/10/17 00:23:22;;;;;;;1.80;1.00;;;;;;;;;;5012891;28;20468;-71
2023/10/17 00:25:50;;;;;;;1.73;0.90;;;;;;;;;;5012905;28;20531;-73
2023/10/17 00:28:20;;;;;;;2.30;1.50;;;;;;;;;;5011152;28;20534;-72
2023/10/17 00:30:48;;;;;;;1.77;0.70;;;;;;;;;;5005053;28;20448;-70
2023/10/17 00:33:20;;;;;;;1.37;0.63;;;;;;;;;;5003121;28;20840;-72
2023/10/17 00:35:48;;;;;;;1.80;0.70;;;;;;;;;;4996838;28;20467;-72
2023/10/17 00:38:15;;;;;;;2.43;1.33;;;;;;;;;;5009408;28;20724;-73
2023/10/17 00:40:47;;;;;;;1.70;0.90;;;;;;;;;;5015627;28;20825;-72
2023/10/17 00:43:15;;;;;;;1.50;0.63;;;;;;;;;;5011211;28;20547;-73
2023/10/17 00:45:43;;;;;;;1.90;0.77;;;;;;;;;;5010663;28;20463;-72
2023/10/17 00:48:17;;;;;;;1.70;1.10;;;;;;;;;;5006809;28;20459;-72
2023/10/17 00:50:46;;;;;;;3.50;1.57;;;;;;;;;;5001193;28;20444;-72
2023/10/17 00:53:13;;;;;;;1.63;1.03;;;;;;;;;;5009672;28;20791;-71
2023/10/17 00:55:49;;;;;;;1.40;0.60;;;;;;;;;;5004884;28;20855;-70
2023/10/17 00:58:18;;;;;;;2.60;1.13;;;;;;;;;;5006333;28;20460;-71
2023/10/17 01:00:49;;;;;;;1.50;0.77;;;;;;;;;;5002590;28;20447;-72
2023/10/17 01:03:17;;;;;;;1.80;0.80;;;;;;;;;;5008071;28;20831;-72
2023/10/17 01:05:57;;;;;;;7.90;1.20;;;;;;;;;;5063917;23;20499;-70
2023/10/17 01:08:36;;;;;;;1.70;1.00;;;;;;;;;;5022222;28;20444;-69
2023/10/17 01:11:08;;;;;;;1.50;0.60;;;;;;;;;;5032891;28;20450;-70
2023/10/17 01:13:37;;;;;;;2.57;1.00;;;;;;;;;;5029901;28;20454;-69
2023/10/17 01:16:07;;;;;;;2.10;1.10;;;;;;;;;;5026754;28;20475;-69
2023/10/17 01:18:35;;;;;;;1.50;0.83;;;;;;;;;;5022030;28;20467;-68
2023/10/17 01:21:04;;;;;;;1.83;1.17;;;;;;;;;;5026351;28;20472;-68
2023/10/17 01:23:31;;;;;;;1.70;0.93;;;;;;;;;;5031518;28;20451;-69
2023/10/17 01:26:01;;;;;;;1.90;1.60;;;;;;;;;;5017880;28;20475;-71
2023/10/17 01:28:31;;;;;;;1.70;0.80;;;;;;;;;;5032165;28;20455;-69
2023/10/17 01:31:01;;;;;;;1.73;1.20;;;;;;;;;;5029144;28;20490;-71
2023/10/17 01:33:29;;;;;;;2.00;1.10;;;;;;;;;;5027485;28;20556;-68
2023/10/17 01:35:58;;;;;;;2.40;1.33;;;;;;;;;;5034043;28;20458;-69
2023/10/17 01:38:26;;;;;;;1.60;0.53;;;;;;;;;;5034046;28;20865;-69
2023/10/17 01:40:54;;;;;;;1.50;0.70;;;;;;;;;;5024173;28;20535;-69
2023/10/17 01:43:23;;;;;;;3.43;1.67;;;;;;;;;;5035108;28;20509;-70
2023/10/17 01:45:50;;;;;;;1.90;1.13;;;;;;;;;;5032368;28;20443;-68
2023/10/17 01:48:21;;;;;;;2.20;1.43;;;;;;;;;;5033789;28;20516;-69
2023/10/17 01:50:48;;;;;;;3.30;1.43;;;;;;;;;;5035207;28;20446;-69
2023/10/17 01:53:15;;;;;;;1.60;0.87;;;;;;;;;;5036745;28;20442;-69
2023/10/17 01:56:03;;;;;;;2.13;1.10;;;;;;;;;;5030751;28;20467;-69
2023/10/17 01:58:36;;;;;;;2.00;0.90;;;;;;;;;;5029380;28;20819;-69
2023/10/17 02:01:03;;;;;;;3.30;1.20;;;;;;;;;;5028177;28;20451;-69
2023/10/17 02:03:30;;;;;;;3.10;1.77;;;;;;;;;;5031528;28;20553;-69
2023/10/17 02:05:59;;;;;;;2.50;1.13;;;;;;;;;;5031385;28;20455;-70
2023/10/17 02:08:26;;;;;;;2.53;0.93;;;;;;;;;;5024046;28;21495;-70
2023/10/17 02:10:53;;;;;;;1.93;0.90;;;;;;;;;;5030517;28;20546;-69
2023/10/17 02:13:21;;;;;;;2.33;1.43;;;;;;;;;;5027351;28;20438;-69
2023/10/17 02:15:50;;;;;;;4.80;2.10;;;;;;;;;;5024631;28;20792;-69
2023/10/17 02:18:18;;;;;;;3.20;1.43;;;;;;;;;;5023720;28;20451;-68
2023/10/17 02:20:51;;;;;;;1.70;0.93;;;;;;;;;;5031130;28;20501;-68
2023/10/17 02:23:25;;;;;;;1.73;1.00;;;;;;;;;;5023990;28;20618;-69
2023/10/17 02:25:54;;;;;;;3.03;1.70;;;;;;;;;;5038821;28;20446;-68
2023/10/17 02:28:22;;;;;;;1.80;0.67;;;;;;;;;;5035615;28;20510;-68
2023/10/17 02:30:50;;;;;;;2.23;1.33;;;;;;;;;;5027903;28;20464;-69
2023/10/17 02:33:18;;;;;;;1.90;0.87;;;;;;;;;;5035086;28;20447;-68
2023/10/17 02:35:57;;;;;;;1.50;0.70;;;;;;;;;;5027387;28;20478;-70
2023/10/17 02:38:24;;;;;;;2.07;1.33;;;;;;;;;;5022905;28;20454;-70
2023/10/17 02:40:53;;;;;;;2.00;0.83;;;;;;;;;;5030986;28;20479;-69
2023/10/17 02:43:20;;;;;;;2.80;1.10;;;;;;;;;;5032032;28;20541;-69
2023/10/17 02:45:47;;;;;;;1.53;0.87;;;;;;;;;;5024025;28;20463;-70
2023/10/17 02:48:25;;;;;;;1.80;1.07;;;;;;;;;;5037812;28;20447;-69
2023/10/17 02:51:00;;;;;;;2.17;1.43;;;;;;;;;;5033093;28;20452;-68
2023/10/17 02:53:29;;;;;;;2.00;1.40;;;;;;;;;;5033186;28;21080;-69
2023/10/17 02:55:56;;;;;;;1.80;0.80;;;;;;;;;;5030537;28;20550;-69
2023/10/17 02:58:24;;;;;;;2.13;1.30;;;;;;;;;;5031416;28;20447;-70
2023/10/17 03:00:51;;;;;;;1.33;0.50;;;;;;;;;;5028184;28;20843;-68
2023/10/17 03:03:20;;;;;;;1.90;1.00;;;;;;;;;;5022562;28;20944;-70
2023/10/17 03:05:50;;;;;;;1.93;1.40;;;;;;;;;;5018502;28;20653;-69
2023/10/17 03:08:18;;;;;;;1.80;0.90;;;;;;;;;;5018314;28;20455;-69
2023/10/17 03:10:45;;;;;;;1.80;1.20;;;;;;;;;;5024916;28;20435;-69
2023/10/17 03:13:23;;;;;;;2.30;1.10;;;;;;;;;;5024326;28;20451;-69
2023/10/17 03:15:53;;;;;;;3.30;1.70;;;;;;;;;;5028398;28;20478;-70
2023/10/17 03:18:22;;;;;;;3.87;2.00;;;;;;;;;;5029553;28;20455;-69
2023/10/17 03:20:52;;;;;;;3.83;1.93;;;;;;;;;;5033860;28;20485;-69
2023/10/17 03:23:19;;;;;;;3.53;1.33;;;;;;;;;;5032392;28;20530;-68
2023/10/17 03:25:46;;;;;;;1.90;1.00;;;;;;;;;;5029596;28;20459;-69
2023/10/17 03:28:15;;;;;;;2.30;0.90;;;;;;;;;;5030136;28;20451;-69
2023/10/17 03:30:42;;;;;;;5.53;0.97;;;;;;;;;;5020884;28;20509;-69
2023/10/17 03:33:13;;;;;;;3.60;2.17;;;;;;;;;;5022826;28;20533;-70
2023/10/17 03:36:03;;;;;;;2.63;1.03;;;;;;;;;;5019576;28;20568;-66
2023/10/17 03:38:32;;;;;;;1.87;0.90;;;;;;;;;;5029443;28;20454;-69
2023/10/17 03:41:04;;;;;;;1.60;0.93;;;;;;;;;;5023926;28;20455;-69
2023/10/17 03:43:38;;;;;;;2.07;1.23;;;;;;;;;;5018173;28;20443;-69
2023/10/17 03:46:05;;;;;;;2.00;1.20;;;;;;;;;;5025182;28;20444;-70
2023/10/17 03:48:36;;;;;;;1.83;1.30;;;;;;;;;;5025632;28;20443;-71
2023/10/17 03:51:15;;;;;;;2.20;1.00;;;;;;;;;;5037003;28;20450;-71
2023/10/17 03:53:46;;;;;;;2.70;1.30;;;;;;;;;;5021231;28;20944;-71
2023/10/17 03:56:23;;;;;;;2.53;0.93;;;;;;;;;;5023304;28;20505;-68
2023/10/17 03:58:53;;;;;;;2.43;1.43;;;;;;;;;;5025661;28;20464;-68
2023/10/17 04:01:23;;;;;;;3.57;1.60;;;;;;;;;;5026444;28;20997;-69
2023/10/17 04:03:53;;;;;;;3.70;1.60;;;;;;;;;;5037745;28;20563;-70
2023/10/17 04:06:34;;;;;;;2.23;0.93;;;;;;;;;;5036294;28;20457;-69
2023/10/17 04:09:15;;;;;;;1.50;0.80;;;;;;;;;;5023326;28;20443;-70
2023/10/17 04:11:45;;;;;;;2.00;1.53;;;;;;;;;;5029547;28;20451;-70
2023/10/17 04:14:13;;;;;;;3.23;1.20;;;;;;;;;;5038752;28;20474;-69
2023/10/17 04:16:43;;;;;;;2.97;1.13;;;;;;;;;;5020376;28;20531;-69
2023/10/17 04:19:16;;;;;;;2.37;1.47;;;;;;;;;;5025942;28;20447;-69
2023/10/17 04:21:51;;;;;;;3.03;1.10;;;;;;;;;;5029354;28;20526;-69
2023/10/17 04:24:27;;;;;;;2.20;1.20;;;;;;;;;;5026598;28;20459;-69
2023/10/17 04:27:06;;;;;;;5.40;1.63;;;;;;;;;;5033582;28;20442;-69
2023/10/17 04:29:34;;;;;;;1.80;1.20;;;;;;;;;;5031533;28;20462;-69
2023/10/17 04:32:02;;;;;;;1.90;1.17;;;;;;;;;;5022541;28;20463;-68
2023/10/17 04:34:29;;;;;;;2.93;1.43;;;;;;;;;;5027167;28;20491;-69
2023/10/17 04:36:58;;;;;;;2.00;1.30;;;;;;;;;;5033492;28;20504;-69
2023/10/17 04:39:35;;;;;;;3.23;1.60;;;;;;;;;;5030575;28;20507;-70
2023/10/17 04:42:06;;;;;;;2.23;1.40;;;;;;;;;;5025346;28;20454;-70
2023/10/17 04:44:34;;;;;;;2.37;1.67;;;;;;;;;;5027318;28;20463;-69
2023/10/17 04:47:25;;;;;;;1.90;1.33;;;;;;;;;;5030217;28;20817;-68
2023/10/17 04:49:53;;;;;;;2.37;1.20;;;;;;;;;;5024640;28;20446;-69
2023/10/17 04:52:28;;;;;;;2.80;1.87;;;;;;;;;;5028376;28;20953;-69
2023/10/17 04:54:58;;;;;;;2.03;0.90;;;;;;;;;;5021245;28;20467;-70
2023/10/17 04:57:48;;;;;;;3.57;0.90;;;;;;;;;;5033038;28;20443;-69
2023/10/17 05:00:24;;;;;;;1.67;0.83;;;;;;;;;;5029888;28;20985;-69
2023/10/17 05:03:03;;;;;;;1.90;1.13;;;;;;;;;;5031292;28;20823;-69
2023/10/17 05:05:39;;;;;;;4.27;1.93;;;;;;;;;;5027377;28;20518;-68
2023/10/17 05:08:32;;;;;;;2.93;1.00;;;;;;;;;;5037937;28;20442;-72
2023/10/17 06:17:27;;;;;;;2.23;1.13;;;;;;;;;;5027399;28;20446;-69
2023/10/17 06:19:58;;;;;;;2.30;1.50;;;;;;;;;;5025373;28;20969;-69
2023/10/17 06:23:23;;;;;;;2.73;1.40;;;;;;;;;;5028225;28;20482;-69
2023/10/17 06:28:27;;;;;;;4.63;2.13;;;;;;;;;;5035225;28;20811;-69
2023/10/17 06:33:42;;;;;;;2.23;1.33;;;;;;;;;;5036609;28;20813;-71
2023/10/17 06:36:15;;;;;;;2.57;1.53;;;;;;;;;;5031902;28;20447;-70
2023/10/17 06:38:47;;;;;;;9.67;3.00;;;;;;;;;;5039721;28;20828;-70
2023/10/17 06:41:14;;;;;;;2.87;1.50;;;;;;;;;;5020828;28;20460;-70
2023/10/17 06:43:46;;;;;;;4.80;2.40;;;;;;;;;;5029878;28;20845;-70
2023/10/17 06:46:28;;;;;;;3.03;1.63;;;;;;;;;;5032825;28;20450;-70
2023/10/17 06:48:57;;;;;;;4.03;1.97;;;;;;;;;;5033543;28;20438;-69
2023/10/17 06:51:36;;;;;;;4.90;1.80;;;;;;;;;;5030836;28;20821;-69
2023/10/17 06:54:07;;;;;;;4.73;2.53;;;;;;;;;;5037797;28;20471;-68
2023/10/17 06:56:38;;;;;;;3.43;1.87;;;;;;;;;;5033713;28;20444;-69
2023/10/17 06:59:14;;;;;;;5.10;1.53;;;;;;;;;;5024576;28;20459;-68
2023/10/17 07:01:42;;;;;;;4.77;1.80;;;;;;;;;;5027704;28;20473;-69
2023/10/17 07:04:11;;;;;;;3.63;1.87;;;;;;;;;;5025669;28;20482;-70
2023/10/17 07:06:39;;;;;;;3.43;1.63;;;;;;;;;;5034504;28;20455;-69
2023/10/17 07:09:16;;;;;;;2.57;1.70;;;;;;;;;;5033823;28;20507;-68
2023/10/17 07:11:47;;;;;;;3.20;1.60;;;;;;;;;;5034884;28;20894;-69
2023/10/17 07:14:24;;;;;;;4.90;2.27;;;;;;;;;;5036004;28;20468;-68
2023/10/17 07:17:00;;;;;;;3.00;1.90;;;;;;;;;;5025873;28;20451;-68
2023/10/17 07:22:14;;;;;;;4.30;2.10;;;;;;;;;;5025415;28;20497;-69
2023/10/17 07:24:48;;;;;;;3.83;2.60;;;;;;;;;;5020935;28;20471;-68
2023/10/17 07:27:26;;;;;;;7.13;3.03;;;;;;;;;;5037222;28;20442;-69
2023/10/17 07:30:00;;;;;;;4.23;2.03;;;;;;;;;;5038666;28;20438;-68
2023/10/17 07:32:36;;;;;;;4.10;1.60;;;;;;;;;;5026093;28;20539;-68
2023/10/17 07:35:04;;;;;;;2.00;1.30;;;;;;;;;;5024911;28;20529;-68
2023/10/17 07:37:44;;;;;;;2.30;1.43;;;;;;;;;;5024051;28;20451;-68
2023/10/17 07:40:22;;;;;;;9.93;3.20;;;;;;;;;;5033719;28;20983;-68
2023/10/17 07:42:52;;;;;;;2.00;1.47;;;;;;;;;;5028657;28;20443;-68
2023/10/17 07:45:21;;;;;;;4.93;2.27;;;;;;;;;;5031331;28;20556;-67
2023/10/17 07:47:54;;;;;;;2.93;1.40;;;;;;;;;;5020293;28;20514;-68
2023/10/17 07:50:25;;;;;;;2.30;1.83;;;;;;;;;;5027527;28;20808;-69
2023/10/17 07:52:59;;;;;;;4.00;2.20;;;;;;;;;;5028300;28;20452;-68
2023/10/17 07:55:36;;;;;;;4.40;2.20;;;;;;;;;;5035562;28;20528;-69
2023/10/17 07:58:07;;;;;;;6.73;2.27;;;;;;;;;;5027737;28;20484;-68
2023/10/17 08:00:34;;;;;;;3.33;2.10;;;;;;;;;;5023050;28;20521;-69
2023/10/17 08:03:09;;;;;;;4.80;2.93;;;;;;;;;;5030643;28;20458;-68
2023/10/17 08:05:44;;;;;;;4.83;3.17;;;;;;;;;;5027104;28;20562;-69
2023/10/17 08:08:14;;;;;;;4.30;3.50;;;;;;;;;;5037226;28;20485;-69
2023/10/17 08:10:45;;;;;;;3.70;2.27;;;;;;;;;;5024419;28;20443;-68
2023/10/17 08:13:13;;;;;;;4.53;2.27;;;;;;;;;;5032755;28;20482;-68
2023/10/17 08:15:46;;;;;;;6.10;2.20;;;;;;;;;;5030321;28;20533;-69
2023/10/17 08:18:15;;;;;;;3.20;1.80;;;;;;;;;;5036963;28;20601;-69
2023/10/17 08:21:33;;;;;;;6.70;2.90;;;;;;;;;;5032184;28;21024;-67
2023/10/17 08:23:41;;;;;;;4.13;2.53;;;;;;;;;;5030302;28;20903;-69
2023/10/17 08:26:11;;;;;;;5.43;2.70;;;;;;;;;;5031852;28;20555;-68
2023/10/17 08:28:46;;;;;;;5.13;3.33;;;;;;;;;;5024951;28;20468;-68
2023/10/17 08:31:23;;;;;;;4.77;2.23;;;;;;;;;;5037883;28;20442;-68
2023/10/17 08:34:08;;;;;;;6.97;2.93;;;;;;;;;;5038907;28;20493;-67
2023/10/17 08:36:48;;;;;;;3.70;2.50;;;;;;;;;;5034874;28;20581;-68
2023/10/17 08:39:39;;;;;;;4.77;2.57;;;;;;;;;;5023355;28;20466;-68
2023/10/17 08:42:11;;;;;;;4.23;2.70;;;;;;;;;;5029813;28;20585;-68
2023/10/17 08:44:39;;;;;;;6.53;2.97;;;;;;;;;;5021549;28;20475;-68
2023/10/17 08:47:07;;;;;;;5.90;3.00;;;;;;;;;;5036320;28;20467;-69
2023/10/17 08:49:38;;;;;;;6.30;3.30;;;;;;;;;;5033119;28;20450;-68
2023/10/17 08:52:06;;;;;;;7.00;3.83;;;;;;;;;;5035944;28;20543;-67
2023/10/17 08:54:33;;;;;;;5.20;2.90;;;;;;;;;;5039603;28;20471;-68
2023/10/17 08:57:01;;;;;;;5.37;2.80;;;;;;;;;;5036428;28;20460;-69
2023/10/17 09:00:13;;;;;;;6.00;3.30;;;;;;;;;;5038941;28;20945;-68
2023/10/17 09:02:29;;;;;;;5.73;2.70;;;;;;;;;;5031667;28;20478;-68
2023/10/17 09:05:03;;;;;;;3.80;2.60;;;;;;;;;;5029264;28;20507;-68
2023/10/17 09:07:32;;;;;;;5.07;2.67;;;;;;;;;;5039386;28;20457;-69
2023/10/17 09:10:04;;;;;;;5.60;2.50;;;;;;;;;;5023879;28;20884;-69
2023/10/17 09:12:36;;;;;;;5.13;2.57;;;;;;;;;;5036377;28;20446;-69
2023/10/17 09:15:06;;;;;;;4.37;2.30;;;;;;;;;;5037823;28;20601;-67
2023/10/17 09:17:36;;;;;;;5.77;3.27;;;;;;;;;;5033825;28;20512;-68
2023/10/17 09:20:11;;;;;;;4.03;3.40;;;;;;;;;;5026263;28;20443;-67
2023/10/17 09:22:40;;;;;;;4.93;2.50;;;;;;;;;;5032262;28;20451;-67
2023/10/17 09:25:26;;;;;;;7.63;3.40;;;;;;;;;;5026482;28;20617;-68
2023/10/17 09:27:54;;;;;;;7.17;2.90;;;;;;;;;;5026779;28;20461;-68
2023/10/17 09:30:23;;;;;;;6.87;3.47;;;;;;;;;;5030645;28;20443;-68
2023/10/17 09:32:50;;;;;;;4.00;1.93;;;;;;;;;;5024656;28;20502;-68
2023/10/17 09:35:19;;;;;;;5.30;2.80;;;;;;;;;;5031013;28;20470;-68
2023/10/17 09:37:50;;;;;;;5.20;2.53;;;;;;;;;;5034676;28;20459;-68
2023/10/17 09:40:22;;;;;;;6.73;2.80;;;;;;;;;;5036146;28;20443;-70
2023/10/17 09:42:49;;;;;;;4.63;3.00;;;;;;;;;;5033609;28;20451;-69
2023/10/17 09:45:17;;;;;;;4.03;2.73;;;;;;;;;;5038101;28;21019;-69
2023/10/17 09:47:46;;;;;;;3.97;2.33;;;;;;;;;;5035104;28;20459;-69
2023/10/17 09:50:16;;;;;;;7.57;3.00;;;;;;;;;;5039639;28;20447;-69
2023/10/17 09:52:48;;;;;;;5.57;3.33;;;;;;;;;;5036166;28;20536;-70
2023/10/17 09:55:18;;;;;;;4.57;2.70;;;;;;;;;;5024703;28;20526;-68
2023/10/17 09:57:50;;;;;;;4.37;2.77;;;;;;;;;;5033996;28;20458;-69
2023/10/17 10:00:23;;;;;;;5.03;2.70;;;;;;;;;;5030901;28;20882;-69
2023/10/17 10:02:51;;;;;;;8.37;3.07;;;;;;;;;;5036153;28;20862;-69
2023/10/17 10:05:21;;;;;;;7.30;3.20;;;;;;;;;;5029785;28;20656;-70
2023/10/17 10:07:50;;;;;;;7.13;3.60;;;;;;;;;;5033534;28;20473;-68
2023/10/17 10:10:38;;;;;;;5.00;3.50;;;;;;;;;;5038129;28;20458;-69
2023/10/17 10:13:08;;;;;;;6.97;3.87;;;;;;;;;;5039083;28;20453;-70
2023/10/17 10:15:51;;;;;;;7.27;3.67;;;;;;;;;;5033497;28;20468;-69
2023/10/17 10:18:18;;;;;;;5.57;3.03;;;;;;;;;;5035400;28;20463;-69
2023/10/17 10:20:56;;;;;;;4.80;2.53;;;;;;;;;;5024541;28;20980;-70
2023/10/17 10:23:33;;;;;;;6.00;3.10;;;;;;;;;;5019786;28;20491;-70
2023/10/17 10:26:16;;;;;;;7.77;3.90;;;;;;;;;;5034917;28;20553;-69
2023/10/17 10:28:44;;;;;;;4.60;2.67;;;;;;;;;;5023889;28;20946;-68
2023/10/17 10:31:30;;;;;;;5.10;3.40;;;;;;;;;;5039095;28;20928;-70
2023/10/17 10:33:58;;;;;;;10.83;3.40;;;;;;;;;;5038283;28;20469;-70
2023/10/17 10:36:26;;;;;;;5.47;3.43;;;;;;;;;;5032183;28;20958;-68
2023/10/17 10:38:57;;;;;;;7.90;3.97;;;;;;;;;;5023561;28;20870;-69
2023/10/17 10:41:25;;;;;;;4.67;2.87;;;;;;;;;;5031171;28;20478;-67
2023/10/17 10:44:01;;;;;;;4.83;3.27;;;;;;;;;;5022127;28;20468;-69
2023/10/17 10:46:29;;;;;;;5.23;3.57;;;;;;;;;;5034996;28;20452;-70
2023/10/17 10:48:56;;;;;;;8.63;4.47;;;;;;;;;;5034541;28;20462;-69
2023/10/17 10:51:25;;;;;;;7.27;3.47;;;;;;;;;;5036685;28;20443;-69
2023/10/17 10:53:56;;;;;;;9.37;4.00;;;;;;;;;;5027077;28;20475;-70
2023/10/17 10:56:24;;;;;;;11.20;4.23;;;;;;;;;;5033498;28;20442;-70
2023/10/17 10:58:53;;;;;;;6.67;3.70;;;;;;;;;;5033341;28;20459;-69
2023/10/17 11:01:21;;;;;;;6.37;3.20;;;;;;;;;;5033716;28;20809;-70
2023/10/17 11:03:49;;;;;;;8.43;3.93;;;;;;;;;;5029928;28;20503;-71
2023/10/17 11:06:23;;;;;;;4.90;3.30;;;;;;;;;;5033267;28;20474;-70
2023/10/17 11:08:50;;;;;;;6.40;4.30;;;;;;;;;;5032660;28;20467;-70
2023/10/17 11:11:19;;;;;;;6.10;3.43;;;;;;;;;;5037140;28;20439;-71
2023/10/17 11:13:47;;;;;;;6.00;4.40;;;;;;;;;;5036238;28;20493;-70
2023/10/17 11:16:17;;;;;;;7.83;3.63;;;;;;;;;;5031946;28;20455;-69
2023/10/17 11:18:45;;;;;;;6.13;3.80;;;;;;;;;;5034919;28;20448;-69
2023/10/17 11:21:12;;;;;;;5.00;2.90;;;;;;;;;;5028383;28;20565;-71
2023/10/17 11:23:41;;;;;;;9.27;5.23;;;;;;;;;;5024226;28;20459;-69
2023/10/17 11:26:11;;;;;;;6.53;3.73;;;;;;;;;;5037239;28;20447;-69
2023/10/17 11:28:42;;;;;;;4.27;3.83;;;;;;;;;;5029868;28;20977;-69
2023/10/17 11:31:13;;;;;;;5.00;2.77;;;;;;;;;;5031519;28;20470;-70
2023/10/17 11:33:47;;;;;;;9.40;3.93;;;;;;;;;;5031152;28;20490;-69
2023/10/17 11:36:17;;;;;;;6.40;3.90;;;;;;;;;;5029812;28;20961;-70
2023/10/17 11:38:46;;;;;;;6.97;4.10;;;;;;;;;;5028086;28;20858;-69
2023/10/17 11:41:15;;;;;;;4.90;3.70;;;;;;;;;;5030117;28;20597;-69
2023/10/17 11:43:51;;;;;;;7.60;4.47;;;;;;;;;;5036699;28;20524;-70
2023/10/17 11:46:28;;;;;;;6.77;3.17;;;;;;;;;;5029817;28;20543;-70
2023/10/17 11:48:55;;;;;;;5.23;3.20;;;;;;;;;;5029064;28;20446;-69
2023/10/17 11:51:29;;;;;;;4.57;3.17;;;;;;;;;;5026648;28;20467;-68
2023/10/17 11:54:05;;;;;;;5.67;3.03;;;;;;;;;;5024213;28;20514;-68
2023/10/17 11:56:32;;;;;;;5.27;3.10;;;;;;;;;;5039129;28;20556;-69
2023/10/17 11:59:02;;;;;;;6.10;2.77;;;;;;;;;;5036694;28;20811;-69
2023/10/17 12:01:30;;;;;;;3.90;2.53;;;;;;;;;;5032489;28;20866;-68
2023/10/17 12:03:58;;;;;;;4.43;2.60;;;;;;;;;;5022774;28;20538;-70
2023/10/17 12:06:27;;;;;;;4.70;4.20;;;;;;;;;;5036317;28;20461;-69
2023/10/17 12:08:54;;;;;;;7.60;3.77;;;;;;;;;;5027502;28;20471;-69
2023/10/17 12:11:24;;;;;;;4.97;3.37;;;;;;;;;;5039923;28;20442;-70
2023/10/17 12:13:51;;;;;;;6.30;4.57;;;;;;;;;;5026880;28;20466;-69
2023/10/17 12:16:23;;;;;;;5.67;3.30;;;;;;;;;;5028173;28;20447;-69
2023/10/17 12:18:53;;;;;;;5.50;3.90;;;;;;;;;;5030468;28;20439;-68
2023/10/17 12:21:20;;;;;;;5.80;3.73;;;;;;;;;;5028457;28;20468;-70
2023/10/17 12:23:47;;;;;;;5.53;3.30;;;;;;;;;;5036029;28;20467;-69
2023/10/17 12:26:14;;;;;;;5.70;3.20;;;;;;;;;;5029439;28;20460;-68
2023/10/17 12:28:42;;;;;;;6.10;4.40;;;;;;;;;;5025696;28;20444;-68
2023/10/17 12:31:09;;;;;;;4.90;3.20;;;;;;;;;;5016095;28;20453;-68
2023/10/17 12:33:38;;;;;;;6.83;3.47;;;;;;;;;;5028304;28;20447;-68
2023/10/17 12:36:06;;;;;;;7.63;3.90;;;;;;;;;;5022313;28;20450;-69
2023/10/17 12:38:36;;;;;;;9.43;3.90;;;;;;;;;;5034435;28;20541;-70
2023/10/17 12:41:07;;;;;;;6.30;3.30;;;;;;;;;;5031221;28;20442;-67
2023/10/17 12:43:34;;;;;;;6.30;4.47;;;;;;;;;;5031273;28;20495;-67
2023/10/17 12:46:03;;;;;;;6.13;4.10;;;;;;;;;;5030307;28;20517;-69
2023/10/17 12:48:30;;;;;;;6.30;3.83;;;;;;;;;;5032021;28;20448;-68
2023/10/17 12:50:58;;;;;;;4.77;3.17;;;;;;;;;;5033497;28;20443;-68
2023/10/17 12:53:26;;;;;;;6.90;3.10;;;;;;;;;;5031000;28;20489;-71
2023/10/17 12:55:55;;;;;;;4.90;3.30;;;;;;;;;;5030729;28;20452;-69
2023/10/17 12:58:22;;;;;;;5.40;3.47;;;;;;;;;;5026817;28;20980;-69
2023/10/17 13:00:50;;;;;;;6.73;3.87;;;;;;;;;;5037372;28;20534;-69
2023/10/17 13:03:18;;;;;;;4.50;3.53;;;;;;;;;;5036868;28;20564;-69
2023/10/17 13:05:46;;;;;;;7.40;3.90;;;;;;;;;;5088944;22;20488;-69
2023/10/17 13:08:15;;;;;;;4.00;2.97;;;;;;;;;;5065029;28;20523;-69
2023/10/17 13:10:43;;;;;;;7.00;3.83;;;;;;;;;;5073263;28;20552;-69
2023/10/17 13:13:10;;;;;;;6.77;4.40;;;;;;;;;;5070809;28;20468;-69
2023/10/17 13:15:38;;;;;;;7.30;4.50;;;;;;;;;;5071408;28;20474;-68
2023/10/17 13:18:07;;;;;;;5.23;3.40;;;;;;;;;;5062979;28;20477;-71
2023/10/17 13:20:34;;;;;;;6.40;3.63;;;;;;;;;;5067182;28;20454;-69
2023/10/17 13:23:03;;;;;;;5.00;3.40;;;;;;;;;;5058245;28;20504;-69
2023/10/17 13:25:36;;;;;;;6.50;3.23;;;;;;;;;;5067752;28;20493;-69
2023/10/17 13:28:03;;;;;;;5.57;2.97;;;;;;;;;;5056363;28;20529;-68
2023/10/17 13:30:31;;;;;;;4.57;3.13;;;;;;;;;;5067418;28;20484;-69
2023/10/17 13:32:58;;;;;;;3.10;1.90;;;;;;;;;;5063681;28;20449;-68
2023/10/17 13:35:25;;;;;;;5.70;3.27;;;;;;;;;;5063960;28;20461;-68
2023/10/17 13:37:52;;;;;;;6.00;4.00;;;;;;;;;;5066543;28;20823;-68
2023/10/17 13:40:21;;;;;;;4.80;3.07;;;;;;;;;;5059901;28;20449;-69
2023/10/17 13:42:52;;;;;;;8.90;3.27;;;;;;;;;;5062327;28;20474;-69
2023/10/17 13:45:21;;;;;;;3.90;2.53;;;;;;;;;;5059390;28;20510;-69
2023/10/17 13:47:49;;;;;;;5.50;3.60;;;;;;;;;;5063768;28;20477;-69
2023/10/17 13:50:18;;;;;;;5.53;4.23;;;;;;;;;;5065873;28;20535;-69
2023/10/17 13:52:46;;;;;;;5.97;3.60;;;;;;;;;;5059526;28;20442;-69
2023/10/17 13:55:17;;;;;;;8.13;3.90;;;;;;;;;;5049079;28;20524;-69
2023/10/17 13:57:46;;;;;;;4.33;2.97;;;;;;;;;;5067390;28;20445;-69
2023/10/17 14:00:19;;;;;;;5.20;3.63;;;;;;;;;;5052918;28;20450;-69
2023/10/17 14:02:49;;;;;;;5.87;3.77;;;;;;;;;;5065766;28;20461;-70
2023/10/17 14:05:18;;;;;;;5.60;3.60;;;;;;;;;;5064873;28;20596;-69
2023/10/17 14:07:45;;;;;;;4.83;3.60;;;;;;;;;;5067728;28;20473;-69
2023/10/17 14:10:12;;;;;;;4.90;3.47;;;;;;;;;;5062635;28;20507;-69
2023/10/17 14:12:41;;;;;;;6.17;3.73;;;;;;;;;;5059490;28;20446;-69
2023/10/17 14:15:08;;;;;;;8.70;3.60;;;;;;;;;;5062731;28;20478;-69
2023/10/17 14:17:37;;;;;;;6.60;3.67;;;;;;;;;;5067650;28;20446;-69
2023/10/17 14:20:15;;;;;;;5.70;3.97;;;;;;;;;;5056525;28;20895;-70
2023/10/17 14:22:57;;;;;;;5.70;3.80;;;;;;;;;;5058029;28;20473;-68
2023/10/17 14:28:06;;;;;;;5.40;3.53;;;;;;;;;;5058078;28;20438;-69
2023/10/17 14:30:33;;;;;;;6.73;3.07;;;;;;;;;;5068793;28;20438;-68
2023/10/17 14:33:01;;;;;;;7.33;3.90;;;;;;;;;;5050876;28;20461;-68
2023/10/17 14:35:33;;;;;;;7.23;3.80;;;;;;;;;;5066855;28;20466;-68
2023/10/17 14:38:00;;;;;;;8.60;5.17;;;;;;;;;;5061897;28;20469;-69
2023/10/17 14:40:29;;;;;;;3.97;2.93;;;;;;;;;;5050521;28;21161;-69
2023/10/17 14:42:57;;;;;;;4.70;2.97;;;;;;;;;;5062477;28;20850;-69
2023/10/17 14:45:25;;;;;;;5.93;3.83;;;;;;;;;;5058964;28;20622;-68
2023/10/17 14:47:52;;;;;;;7.97;4.00;;;;;;;;;;5065803;28;20450;-68
2023/10/17 14:50:20;;;;;;;10.30;4.00;;;;;;;;;;5066240;28;20441;-69
2023/10/17 14:52:48;;;;;;;9.30;3.80;;;;;;;;;;5060027;28;20430;-69
2023/10/17 14:55:15;;;;;;;7.63;4.93;;;;;;;;;;5066871;28;21002;-68
2023/10/17 14:57:43;;;;;;;4.97;3.90;;;;;;;;;;5066856;28;20446;-69
2023/10/17 15:00:12;;;;;;;5.83;3.43;;;;;;;;;;5054420;28;20443;-68
2023/10/17 15:02:40;;;;;;;5.67;4.70;;;;;;;;;;5055070;28;20522;-72
2023/10/17 15:05:11;;;;;;;4.50;3.70;;;;;;;;;;5060519;28;20524;-71
2023/10/17 15:07:40;;;;;;;5.13;3.33;;;;;;;;;;5046658;28;20949;-72
2023/10/17 15:10:11;;;;;;;4.50;2.73;;;;;;;;;;5055569;28;20462;-72
2023/10/17 15:12:39;;;;;;;6.60;3.97;;;;;;;;;;5061476;28;20470;-70
2023/10/17 15:15:10;;;;;;;5.67;4.00;;;;;;;;;;5061369;28;20465;-70
2023/10/17 15:17:37;;;;;;;6.80;3.47;;;;;;;;;;5053764;28;20466;-70
2023/10/17 15:20:06;;;;;;;8.80;4.77;;;;;;;;;;5059851;28;20483;-71
2023/10/17 15:22:33;;;;;;;6.67;3.03;;;;;;;;;;5061316;28;20480;-70
2023/10/17 15:25:01;;;;;;;5.50;3.53;;;;;;;;;;5061359;28;20490;-70
2023/10/17 15:27:28;;;;;;;6.70;4.00;;;;;;;;;;5065275;28;20472;-70
2023/10/17 15:29:55;;;;;;;5.90;3.40;;;;;;;;;;5064728;28;20444;-69
2023/10/17 15:32:23;;;;;;;6.47;3.97;;;;;;;;;;5055422;28;20460;-72
2023/10/17 15:34:51;;;;;;;6.00;3.77;;;;;;;;;;5059101;28;20853;-70
2023/10/17 15:37:18;;;;;;;5.03;4.30;;;;;;;;;;5059015;28;20936;-70
2023/10/17 15:39:46;;;;;;;5.03;3.23;;;;;;;;;;5058142;28;20461;-71
2023/10/17 15:42:15;;;;;;;4.80;2.80;;;;;;;;;;5058963;28;20936;-71
2023/10/17 15:44:45;;;;;;;4.07;2.67;;;;;;;;;;5062179;28;20536;-71
2023/10/17 15:47:13;;;;;;;4.90;3.30;;;;;;;;;;5060430;28;20866;-69
2023/10/17 15:49:40;;;;;;;4.67;3.20;;;;;;;;;;5057572;28;20866;-70
2023/10/17 15:52:07;;;;;;;5.50;3.20;;;;;;;;;;5057340;28;20457;-73
2023/10/17 15:54:34;;;;;;;4.97;3.03;;;;;;;;;;5055806;28;20466;-70
2023/10/17 15:57:03;;;;;;;4.27;3.03;;;;;;;;;;5055967;28;20446;-70
2023/10/17 15:59:32;;;;;;;6.40;2.90;;;;;;;;;;5065109;28;20453;-70
2023/10/17 16:01:59;;;;;;;3.30;2.47;;;;;;;;;;5044315;28;20450;-70
2023/10/17 16:04:30;;;;;;;4.70;2.93;;;;;;;;;;5051193;28;20493;-71
2023/10/17 16:06:57;;;;;;;5.80;3.03;;;;;;;;;;5068723;28;20441;-71
2023/10/17 16:09:25;;;;;;;5.10;2.87;;;;;;;;;;5070013;28;20452;-71
2023/10/17 16:11:52;;;;;;;4.50;2.83;;;;;;;;;;5058963;28;20457;-69
2023/10/17 16:14:20;;;;;;;5.87;3.00;;;;;;;;;;5061857;28;20813;-70
2023/10/17 16:16:49;;;;;;;4.23;2.80;;;;;;;;;;5057450;28;20455;-70
2023/10/17 16:19:16;;;;;;;6.13;3.80;;;;;;;;;;5067466;28;20456;-69
2023/10/17 16:21:45;;;;;;;5.60;3.03;;;;;;;;;;5056092;28;20438;-70